sensor_id;sensor_type;location;lat;lon;timestamp;pressure;altitude;pressure_sealevel;temperature
71463;BMP180;59266;52.608;13.260;2023-12-20T00:01:22;100509.00;;;7.40
71463;BMP180;59266;52.608;13.260;2023-12-20T00:03:49;100514.00;;;7.30
71463;BMP180;59266;52.608;13.260;2023-12-20T00:06:25;100513.00;;;7.20
71463;BMP180;59266;52.608;13.260;2023-12-20T00:08:52;100510.00;;;7.30
71463;BMP180;59266;52.608;13.260;2023-12-20T00:11:18;100517.00;;;7.30
71463;BMP180;59266;52.608;13.260;2023-12-20T00:13:45;100511.00;;;7.30
71463;BMP180;59266;52.608;13.260;2023-12-20T00:16:16;100491.00;;;7.40
71463;BMP180;59266;52.608;13.260;2023-12-20T00:18:42;100494.00;;;7.40
71463;BMP180;59266;52.608;13.260;2023-12-20T00:21:12;100500.00;;;7.40
71463;BMP180;59266;52.608;13.260;2023-12-20T00:23:38;100490.00;;;7.40
71463;BMP180;59266;52.608;13.260;2023-12-20T00:26:05;100485.00;;;7.30
71463;BMP180;59266;52.608;13.260;2023-12-20T00:28:31;100493.00;;;7.40
71463;BMP180;59266;52.608;13.260;2023-12-20T00:38:08;100480.00;;;7.30
71463;BMP180;59266;52.608;13.260;2023-12-20T00:40:36;100480.00;;;7.30
71463;BMP180;59266;52.608;13.260;2023-12-20T00:43:03;100480.00;;;7.20
71463;BMP180;59266;52.608;13.260;2023-12-20T00:45:29;100488.00;;;7.30
71463;BMP180;59266;52.608;13.260;2023-12-20T00:47:56;100491.00;;;7.20
71463;BMP180;59266;52.608;13.260;2023-12-20T00:50:22;100488.00;;;7.40
71463;BMP180;59266;52.608;13.260;2023-12-20T00:52:53;100488.00;;;7.30
71463;BMP180;59266;52.608;13.260;2023-12-20T00:55:21;100480.00;;;7.40
71463;BMP180;59266;52.608;13.260;2023-12-20T01:01:05;100497.00;;;7.30
71463;BMP180;59266;52.608;13.260;2023-12-20T01:03:31;100489.00;;;7.30
71463;BMP180;59266;52.608;13.260;2023-12-20T01:05:58;100487.00;;;7.40
71463;BMP180;59266;52.608;13.260;2023-12-20T01:08:25;100497.00;;;7.30
71463;BMP180;59266;52.608;13.260;2023-12-20T01:10:51;100493.00;;;7.30
71463;BMP180;59266;52.608;13.260;2023-12-20T01:13:18;100504.00;;;7.30
71463;BMP180;59266;52.608;13.260;2023-12-20T01:15:44;100498.00;;;7.20
71463;BMP180;59266;52.608;13.260;2023-12-20T01:18:11;100497.00;;;7.30
71463;BMP180;59266;52.608;13.260;2023-12-20T01:20:40;100492.00;;;7.30
71463;BMP180;59266;52.608;13.260;2023-12-20T01:23:06;100496.00;;;7.30
71463;BMP180;59266;52.608;13.260;2023-12-20T01:25:34;100492.00;;;7.20
71463;BMP180;59266;52.608;13.260;2023-12-20T01:28:01;100493.00;;;7.20
71463;BMP180;59266;52.608;13.260;2023-12-20T01:30:29;100498.00;;;7.20
71463;BMP180;59266;52.608;13.260;2023-12-20T01:32:56;100490.00;;;7.20
71463;BMP180;59266;52.608;13.260;2023-12-20T01:35:22;100491.00;;;7.30
71463;BMP180;59266;52.608;13.260;2023-12-20T01:37:49;100490.00;;;7.30
71463;BMP180;59266;52.608;13.260;2023-12-20T01:40:15;100495.00;;;7.30
71463;BMP180;59266;52.608;13.260;2023-12-20T01:42:43;100497.00;;;7.30
71463;BMP180;59266;52.608;13.260;2023-12-20T01:45:09;100495.00;;;7.20
71463;BMP180;59266;52.608;13.260;2023-12-20T01:47:36;100488.00;;;7.30
71463;BMP180;59266;52.608;13.260;2023-12-20T01:50:03;100474.00;;;7.20
71463;BMP180;59266;52.608;13.260;2023-12-20T01:52:30;100476.00;;;7.20
71463;BMP180;59266;52.608;13.260;2023-12-20T01:54:57;100487.00;;;7.20
71463;BMP180;59266;52.608;13.260;2023-12-20T01:57:29;100483.00;;;7.20
71463;BMP180;59266;52.608;13.260;2023-12-20T01:59:56;100486.00;;;7.10
71463;BMP180;59266;52.608;13.260;2023-12-20T02:02:23;100486.00;;;7.20
71463;BMP180;59266;52.608;13.260;2023-12-20T02:04:49;100485.00;;;7.10
71463;BMP180;59266;52.608;13.260;2023-12-20T02:07:18;100475.00;;;7.10
71463;BMP180;59266;52.608;13.260;2023-12-20T02:09:44;100475.00;;;7.10
71463;BMP180;59266;52.608;13.260;2023-12-20T02:12:11;100474.00;;;7.20
71463;BMP180;59266;52.608;13.260;2023-12-20T02:14:40;100462.00;;;7.10
71463;BMP180;59266;52.608;13.260;2023-12-20T02:17:09;100460.00;;;7.00
71463;BMP180;59266;52.608;13.260;2023-12-20T02:19:36;100459.00;;;7.00
71463;BMP180;59266;52.608;13.260;2023-12-20T02:25:47;100483.00;;;6.90
71463;BMP180;59266;52.608;13.260;2023-12-20T02:28:13;100470.00;;;6.80
71463;BMP180;59266;52.608;13.260;2023-12-20T02:30:43;100476.00;;;6.80
71463;BMP180;59266;52.608;13.260;2023-12-20T02:33:11;100472.00;;;6.80
71463;BMP180;59266;52.608;13.260;2023-12-20T02:35:39;100478.00;;;6.90
71463;BMP180;59266;52.608;13.260;2023-12-20T02:38:06;100481.00;;;6.90
71463;BMP180;59266;52.608;13.260;2023-12-20T02:40:32;100471.00;;;6.80
71463;BMP180;59266;52.608;13.260;2023-12-20T02:42:59;100475.00;;;6.70
71463;BMP180;59266;52.608;13.260;2023-12-20T02:45:26;100460.00;;;6.70
71463;BMP180;59266;52.608;13.260;2023-12-20T02:47:53;100467.00;;;6.70
71463;BMP180;59266;52.608;13.260;2023-12-20T02:50:32;100472.00;;;6.80
71463;BMP180;59266;52.608;13.260;2023-12-20T02:52:58;100467.00;;;6.80
71463;BMP180;59266;52.608;13.260;2023-12-20T02:55:25;100470.00;;;6.70
71463;BMP180;59266;52.608;13.260;2023-12-20T02:57:51;100470.00;;;6.60
71463;BMP180;59266;52.608;13.260;2023-12-20T03:00:18;100467.00;;;6.70
71463;BMP180;59266;52.608;13.260;2023-12-20T03:02:45;100471.00;;;6.60
71463;BMP180;59266;52.608;13.260;2023-12-20T03:05:12;100475.00;;;6.60
71463;BMP180;59266;52.608;13.260;2023-12-20T03:07:38;100477.00;;;6.50
71463;BMP180;59266;52.608;13.260;2023-12-20T03:10:05;100484.00;;;6.50
71463;BMP180;59266;52.608;13.260;2023-12-20T03:12:45;100476.00;;;6.50
71463;BMP180;59266;52.608;13.260;2023-12-20T03:15:12;100475.00;;;6.50
71463;BMP180;59266;52.608;13.260;2023-12-20T03:17:39;100478.00;;;6.40
71463;BMP180;59266;52.608;13.260;2023-12-20T03:20:06;100480.00;;;6.40
71463;BMP180;59266;52.608;13.260;2023-12-20T03:22:33;100492.00;;;6.30
71463;BMP180;59266;52.608;13.260;2023-12-20T03:24:59;100497.00;;;6.50
71463;BMP180;59266;52.608;13.260;2023-12-20T03:27:26;100486.00;;;6.30
71463;BMP180;59266;52.608;13.260;2023-12-20T03:29:52;100478.00;;;6.30
71463;BMP180;59266;52.608;13.260;2023-12-20T03:32:19;100481.00;;;6.30
71463;BMP180;59266;52.608;13.260;2023-12-20T03:34:45;100489.00;;;6.40
71463;BMP180;59266;52.608;13.260;2023-12-20T03:37:12;100479.00;;;6.50
71463;BMP180;59266;52.608;13.260;2023-12-20T03:39:39;100487.00;;;6.50
71463;BMP180;59266;52.608;13.260;2023-12-20T03:42:06;100476.00;;;6.50
71463;BMP180;59266;52.608;13.260;2023-12-20T03:44:32;100467.00;;;6.40
71463;BMP180;59266;52.608;13.260;2023-12-20T03:46:59;100465.00;;;6.50
71463;BMP180;59266;52.608;13.260;2023-12-20T03:49:25;100466.00;;;6.50
71463;BMP180;59266;52.608;13.260;2023-12-20T03:51:55;100470.00;;;6.50
71463;BMP180;59266;52.608;13.260;2023-12-20T03:54:22;100476.00;;;6.60
71463;BMP180;59266;52.608;13.260;2023-12-20T03:56:48;100471.00;;;6.60
71463;BMP180;59266;52.608;13.260;2023-12-20T03:59:18;100472.00;;;6.50
71463;BMP180;59266;52.608;13.260;2023-12-20T04:01:44;100463.00;;;6.50
71463;BMP180;59266;52.608;13.260;2023-12-20T04:04:12;100467.00;;;6.50
71463;BMP180;59266;52.608;13.260;2023-12-20T04:06:39;100454.00;;;6.50
71463;BMP180;59266;52.608;13.260;2023-12-20T04:09:05;100452.00;;;6.60
71463;BMP180;59266;52.608;13.260;2023-12-20T04:11:32;100447.00;;;6.50
71463;BMP180;59266;52.608;13.260;2023-12-20T04:13:58;100441.00;;;6.50
71463;BMP180;59266;52.608;13.260;2023-12-20T04:16:25;100446.00;;;6.50
71463;BMP180;59266;52.608;13.260;2023-12-20T04:18:52;100440.00;;;6.30
71463;BMP180;59266;52.608;13.260;2023-12-20T04:21:20;100440.00;;;6.30
71463;BMP180;59266;52.608;13.260;2023-12-20T04:23:46;100440.00;;;6.20
71463;BMP180;59266;52.608;13.260;2023-12-20T04:26:13;100440.00;;;6.10
71463;BMP180;59266;52.608;13.260;2023-12-20T04:28:39;100445.00;;;6.10
71463;BMP180;59266;52.608;13.260;2023-12-20T04:31:06;100449.00;;;6.00
71463;BMP180;59266;52.608;13.260;2023-12-20T04:33:33;100460.00;;;5.90
71463;BMP180;59266;52.608;13.260;2023-12-20T04:35:59;100453.00;;;5.90
71463;BMP180;59266;52.608;13.260;2023-12-20T04:38:26;100451.00;;;5.90
71463;BMP180;59266;52.608;13.260;2023-12-20T04:40:53;100440.00;;;5.80
71463;BMP180;59266;52.608;13.260;2023-12-20T04:43:19;100447.00;;;5.80
71463;BMP180;59266;52.608;13.260;2023-12-20T04:45:46;100436.00;;;5.80
71463;BMP180;59266;52.608;13.260;2023-12-20T04:48:13;100448.00;;;5.70
71463;BMP180;59266;52.608;13.260;2023-12-20T04:50:40;100451.00;;;5.60
71463;BMP180;59266;52.608;13.260;2023-12-20T04:53:07;100447.00;;;5.50
71463;BMP180;59266;52.608;13.260;2023-12-20T04:55:33;100441.00;;;5.60
71463;BMP180;59266;52.608;13.260;2023-12-20T04:58:00;100435.00;;;5.60
71463;BMP180;59266;52.608;13.260;2023-12-20T05:00:27;100451.00;;;5.70
71463;BMP180;59266;52.608;13.260;2023-12-20T05:02:53;100438.00;;;5.60
71463;BMP180;59266;52.608;13.260;2023-12-20T05:05:20;100447.00;;;5.60
71463;BMP180;59266;52.608;13.260;2023-12-20T05:07:47;100440.00;;;5.50
71463;BMP180;59266;52.608;13.260;2023-12-20T05:10:14;100431.00;;;5.40
71463;BMP180;59266;52.608;13.260;2023-12-20T05:12:43;100446.00;;;5.40
71463;BMP180;59266;52.608;13.260;2023-12-20T05:15:09;100439.00;;;5.30
71463;BMP180;59266;52.608;13.260;2023-12-20T05:17:36;100442.00;;;5.30
71463;BMP180;59266;52.608;13.260;2023-12-20T05:20:03;100442.00;;;5.20
71463;BMP180;59266;52.608;13.260;2023-12-20T05:22:30;100440.00;;;5.20
71463;BMP180;59266;52.608;13.260;2023-12-20T05:24:56;100447.00;;;5.20
71463;BMP180;59266;52.608;13.260;2023-12-20T05:27:23;100445.00;;;5.20
71463;BMP180;59266;52.608;13.260;2023-12-20T05:29:49;100443.00;;;5.20
71463;BMP180;59266;52.608;13.260;2023-12-20T05:32:17;100448.00;;;5.10
71463;BMP180;59266;52.608;13.260;2023-12-20T05:34:44;100438.00;;;5.10
71463;BMP180;59266;52.608;13.260;2023-12-20T05:37:11;100439.00;;;5.10
71463;BMP180;59266;52.608;13.260;2023-12-20T05:39:38;100430.00;;;5.00
71463;BMP180;59266;52.608;13.260;2023-12-20T05:42:05;100430.00;;;4.90
71463;BMP180;59266;52.608;13.260;2023-12-20T05:44:31;100432.00;;;4.90
71463;BMP180;59266;52.608;13.260;2023-12-20T05:46:58;100434.00;;;4.90
71463;BMP180;59266;52.608;13.260;2023-12-20T05:49:24;100432.00;;;4.80
71463;BMP180;59266;52.608;13.260;2023-12-20T05:51:51;100429.00;;;4.80
71463;BMP180;59266;52.608;13.260;2023-12-20T05:54:18;100422.00;;;4.80
71463;BMP180;59266;52.608;13.260;2023-12-20T05:56:44;100429.00;;;4.90
71463;BMP180;59266;52.608;13.260;2023-12-20T05:59:11;100417.00;;;5.00
71463;BMP180;59266;52.608;13.260;2023-12-20T06:01:37;100410.00;;;5.00
71463;BMP180;59266;52.608;13.260;2023-12-20T06:04:04;100413.00;;;5.00
71463;BMP180;59266;52.608;13.260;2023-12-20T06:06:31;100412.00;;;4.90
71463;BMP180;59266;52.608;13.260;2023-12-20T06:08:58;100413.00;;;4.90
71463;BMP180;59266;52.608;13.260;2023-12-20T06:11:24;100404.00;;;4.80
71463;BMP180;59266;52.608;13.260;2023-12-20T06:13:51;100412.00;;;4.80
71463;BMP180;59266;52.608;13.260;2023-12-20T06:16:19;100412.00;;;4.80
71463;BMP180;59266;52.608;13.260;2023-12-20T06:18:46;100414.00;;;4.80
71463;BMP180;59266;52.608;13.260;2023-12-20T06:24:41;100426.00;;;4.90
71463;BMP180;59266;52.608;13.260;2023-12-20T06:27:08;100414.00;;;5.00
71463;BMP180;59266;52.608;13.260;2023-12-20T06:29:35;100420.00;;;5.00
71463;BMP180;59266;52.608;13.260;2023-12-20T06:32:01;100420.00;;;5.00
71463;BMP180;59266;52.608;13.260;2023-12-20T06:34:28;100412.00;;;4.90
71463;BMP180;59266;52.608;13.260;2023-12-20T06:36:56;100413.00;;;5.00
71463;BMP180;59266;52.608;13.260;2023-12-20T06:39:23;100418.00;;;4.90
71463;BMP180;59266;52.608;13.260;2023-12-20T06:41:49;100414.00;;;4.90
71463;BMP180;59266;52.608;13.260;2023-12-20T06:44:16;100410.00;;;5.00
71463;BMP180;59266;52.608;13.260;2023-12-20T06:46:43;100415.00;;;5.00
71463;BMP180;59266;52.608;13.260;2023-12-20T06:49:12;100409.00;;;5.10
71463;BMP180;59266;52.608;13.260;2023-12-20T06:51:42;100409.00;;;5.10
71463;BMP180;59266;52.608;13.260;2023-12-20T06:54:09;100410.00;;;5.10
71463;BMP180;59266;52.608;13.260;2023-12-20T06:56:35;100408.00;;;5.20
71463;BMP180;59266;52.608;13.260;2023-12-20T06:59:02;100393.00;;;5.20
71463;BMP180;59266;52.608;13.260;2023-12-20T07:01:29;100400.00;;;5.20
71463;BMP180;59266;52.608;13.260;2023-12-20T07:03:55;100397.00;;;5.30
71463;BMP180;59266;52.608;13.260;2023-12-20T07:06:22;100400.00;;;5.30
71463;BMP180;59266;52.608;13.260;2023-12-20T07:08:52;100403.00;;;5.30
71463;BMP180;59266;52.608;13.260;2023-12-20T07:11:21;100401.00;;;5.30
71463;BMP180;59266;52.608;13.260;2023-12-20T07:13:48;100401.00;;;5.30
71463;BMP180;59266;52.608;13.260;2023-12-20T07:16:16;100390.00;;;5.30
71463;BMP180;59266;52.608;13.260;2023-12-20T07:18:42;100397.00;;;5.30
71463;BMP180;59266;52.608;13.260;2023-12-20T07:21:09;100387.00;;;5.30
71463;BMP180;59266;52.608;13.260;2023-12-20T07:23:35;100390.00;;;5.40
71463;BMP180;59266;52.608;13.260;2023-12-20T07:26:02;100384.00;;;5.40
71463;BMP180;59266;52.608;13.260;2023-12-20T07:28:32;100387.00;;;5.40
71463;BMP180;59266;52.608;13.260;2023-12-20T07:31:07;100382.00;;;5.40
71463;BMP180;59266;52.608;13.260;2023-12-20T07:33:33;100385.00;;;5.40
71463;BMP180;59266;52.608;13.260;2023-12-20T07:36:05;100385.00;;;5.40
71463;BMP180;59266;52.608;13.260;2023-12-20T07:38:32;100389.00;;;5.40
71463;BMP180;59266;52.608;13.260;2023-12-20T07:40:58;100385.00;;;5.40
71463;BMP180;59266;52.608;13.260;2023-12-20T07:43:25;100377.00;;;5.50
71463;BMP180;59266;52.608;13.260;2023-12-20T07:45:51;100374.00;;;5.50
71463;BMP180;59266;52.608;13.260;2023-12-20T07:48:18;100373.00;;;5.50
71463;BMP180;59266;52.608;13.260;2023-12-20T07:50:47;100383.00;;;5.50
71463;BMP180;59266;52.608;13.260;2023-12-20T07:53:13;100375.00;;;5.50
71463;BMP180;59266;52.608;13.260;2023-12-20T07:55:42;100370.00;;;5.50
71463;BMP180;59266;52.608;13.260;2023-12-20T07:58:09;100377.00;;;5.50
71463;BMP180;59266;52.608;13.260;2023-12-20T08:00:36;100384.00;;;5.60
71463;BMP180;59266;52.608;13.260;2023-12-20T08:03:02;100387.00;;;5.60
71463;BMP180;59266;52.608;13.260;2023-12-20T08:05:30;100388.00;;;5.60
71463;BMP180;59266;52.608;13.260;2023-12-20T08:07:56;100381.00;;;5.60
71463;BMP180;59266;52.608;13.260;2023-12-20T08:10:23;100377.00;;;5.60
71463;BMP180;59266;52.608;13.260;2023-12-20T08:12:51;100384.00;;;5.70
71463;BMP180;59266;52.608;13.260;2023-12-20T08:15:21;100394.00;;;5.60
71463;BMP180;59266;52.608;13.260;2023-12-20T08:17:47;100384.00;;;5.60
71463;BMP180;59266;52.608;13.260;2023-12-20T08:20:16;100388.00;;;5.60
71463;BMP180;59266;52.608;13.260;2023-12-20T08:22:55;100378.00;;;5.70
71463;BMP180;59266;52.608;13.260;2023-12-20T08:25:22;100395.00;;;5.70
71463;BMP180;59266;52.608;13.260;2023-12-20T08:27:48;100380.00;;;5.70
71463;BMP180;59266;52.608;13.260;2023-12-20T08:30:15;100383.00;;;5.70
71463;BMP180;59266;52.608;13.260;2023-12-20T08:32:49;100382.00;;;5.60
71463;BMP180;59266;52.608;13.260;2023-12-20T08:35:16;100378.00;;;5.70
71463;BMP180;59266;52.608;13.260;2023-12-20T08:37:47;100362.00;;;5.80
71463;BMP180;59266;52.608;13.260;2023-12-20T08:40:14;100358.00;;;5.90
71463;BMP180;59266;52.608;13.260;2023-12-20T08:42:41;100352.00;;;5.90
71463;BMP180;59266;52.608;13.260;2023-12-20T08:45:07;100352.00;;;6.00
71463;BMP180;59266;52.608;13.260;2023-12-20T08:47:34;100347.00;;;6.10
71463;BMP180;59266;52.608;13.260;2023-12-20T08:50:02;100350.00;;;6.10
71463;BMP180;59266;52.608;13.260;2023-12-20T08:52:29;100355.00;;;6.10
71463;BMP180;59266;52.608;13.260;2023-12-20T08:54:56;100347.00;;;6.10
71463;BMP180;59266;52.608;13.260;2023-12-20T08:57:22;100352.00;;;6.10
71463;BMP180;59266;52.608;13.260;2023-12-20T08:59:52;100360.00;;;6.10
71463;BMP180;59266;52.608;13.260;2023-12-20T09:02:21;100358.00;;;6.20
71463;BMP180;59266;52.608;13.260;2023-12-20T09:04:48;100338.00;;;6.30
71463;BMP180;59266;52.608;13.260;2023-12-20T09:07:25;100336.00;;;6.50
71463;BMP180;59266;52.608;13.260;2023-12-20T09:09:52;100340.00;;;6.70
71463;BMP180;59266;52.608;13.260;2023-12-20T09:12:22;100341.00;;;6.60
71463;BMP180;59266;52.608;13.260;2023-12-20T09:14:49;100354.00;;;6.50
71463;BMP180;59266;52.608;13.260;2023-12-20T09:17:17;100354.00;;;6.60
71463;BMP180;59266;52.608;13.260;2023-12-20T09:19:43;100344.00;;;6.60
71463;BMP180;59266;52.608;13.260;2023-12-20T09:22:15;100346.00;;;6.50
71463;BMP180;59266;52.608;13.260;2023-12-20T09:24:42;100354.00;;;6.40
71463;BMP180;59266;52.608;13.260;2023-12-20T09:27:16;100352.00;;;6.30
71463;BMP180;59266;52.608;13.260;2023-12-20T09:29:42;100344.00;;;6.30
71463;BMP180;59266;52.608;13.260;2023-12-20T09:32:09;100342.00;;;6.30
71463;BMP180;59266;52.608;13.260;2023-12-20T09:34:36;100324.00;;;6.30
71463;BMP180;59266;52.608;13.260;2023-12-20T09:37:04;100326.00;;;6.40
71463;BMP180;59266;52.608;13.260;2023-12-20T09:39:30;100338.00;;;6.40
71463;BMP180;59266;52.608;13.260;2023-12-20T09:42:07;100337.00;;;6.40
71463;BMP180;59266;52.608;13.260;2023-12-20T09:44:34;100341.00;;;6.30
71463;BMP180;59266;52.608;13.260;2023-12-20T09:47:04;100332.00;;;6.30
71463;BMP180;59266;52.608;13.260;2023-12-20T09:49:31;100318.00;;;6.30
71463;BMP180;59266;52.608;13.260;2023-12-20T09:52:04;100322.00;;;6.40
71463;BMP180;59266;52.608;13.260;2023-12-20T09:54:31;100315.00;;;6.30
71463;BMP180;59266;52.608;13.260;2023-12-20T09:56:58;100322.00;;;6.40
71463;BMP180;59266;52.608;13.260;2023-12-20T09:59:24;100331.00;;;6.40
71463;BMP180;59266;52.608;13.260;2023-12-20T10:01:52;100311.00;;;6.40
71463;BMP180;59266;52.608;13.260;2023-12-20T10:04:26;100310.00;;;6.40
71463;BMP180;59266;52.608;13.260;2023-12-20T10:06:56;100310.00;;;6.40
71463;BMP180;59266;52.608;13.260;2023-12-20T10:09:24;100305.00;;;6.40
71463;BMP180;59266;52.608;13.260;2023-12-20T10:11:54;100300.00;;;6.40
71463;BMP180;59266;52.608;13.260;2023-12-20T10:14:21;100298.00;;;6.50
71463;BMP180;59266;52.608;13.260;2023-12-20T10:16:49;100288.00;;;6.60
71463;BMP180;59266;52.608;13.260;2023-12-20T10:19:17;100292.00;;;6.60
71463;BMP180;59266;52.608;13.260;2023-12-20T10:21:44;100286.00;;;6.50
71463;BMP180;59266;52.608;13.260;2023-12-20T10:24:17;100273.00;;;6.50
71463;BMP180;59266;52.608;13.260;2023-12-20T10:27:03;100284.00;;;6.50
71463;BMP180;59266;52.608;13.260;2023-12-20T10:29:37;100274.00;;;6.50
71463;BMP180;59266;52.608;13.260;2023-12-20T10:32:24;100278.00;;;6.50
71463;BMP180;59266;52.608;13.260;2023-12-20T10:34:51;100264.00;;;6.50
71463;BMP180;59266;52.608;13.260;2023-12-20T10:37:18;100252.00;;;6.50
71463;BMP180;59266;52.608;13.260;2023-12-20T10:39:50;100247.00;;;6.50
71463;BMP180;59266;52.608;13.260;2023-12-20T10:42:21;100249.00;;;6.70
71463;BMP180;59266;52.608;13.260;2023-12-20T10:44:51;100244.00;;;6.70
71463;BMP180;59266;52.608;13.260;2023-12-20T10:47:19;100232.00;;;6.60
71463;BMP180;59266;52.608;13.260;2023-12-20T10:49:46;100234.00;;;6.60
71463;BMP180;59266;52.608;13.260;2023-12-20T10:52:16;100240.00;;;6.70
71463;BMP180;59266;52.608;13.260;2023-12-20T10:54:44;100226.00;;;6.50
71463;BMP180;59266;52.608;13.260;2023-12-20T10:57:11;100208.00;;;6.60
71463;BMP180;59266;52.608;13.260;2023-12-20T10:59:39;100205.00;;;6.60
71463;BMP180;59266;52.608;13.260;2023-12-20T11:02:05;100211.00;;;6.70
71463;BMP180;59266;52.608;13.260;2023-12-20T11:04:40;100219.00;;;6.90
71463;BMP180;59266;52.608;13.260;2023-12-20T11:07:29;100203.00;;;6.80
71463;BMP180;59266;52.608;13.260;2023-12-20T11:10:11;100198.00;;;6.80
71463;BMP180;59266;52.608;13.260;2023-12-20T11:12:54;100188.00;;;6.80
71463;BMP180;59266;52.608;13.260;2023-12-20T11:15:25;100188.00;;;6.70
71463;BMP180;59266;52.608;13.260;2023-12-20T11:17:57;100182.00;;;6.70
71463;BMP180;59266;52.608;13.260;2023-12-20T11:31:26;100161.00;;;6.60
71463;BMP180;59266;52.608;13.260;2023-12-20T11:34:14;100156.00;;;6.60
71463;BMP180;59266;52.608;13.260;2023-12-20T11:36:43;100153.00;;;6.70
71463;BMP180;59266;52.608;13.260;2023-12-20T11:39:10;100147.00;;;6.70
71463;BMP180;59266;52.608;13.260;2023-12-20T11:41:39;100134.00;;;6.70
71463;BMP180;59266;52.608;13.260;2023-12-20T11:44:05;100130.00;;;6.80
71463;BMP180;59266;52.608;13.260;2023-12-20T11:46:33;100135.00;;;6.70
71463;BMP180;59266;52.608;13.260;2023-12-20T11:49:00;100122.00;;;6.80
71463;BMP180;59266;52.608;13.260;2023-12-20T11:54:31;100091.00;;;7.00
71463;BMP180;59266;52.608;13.260;2023-12-20T11:56:58;100086.00;;;7.00
71463;BMP180;59266;52.608;13.260;2023-12-20T11:59:24;100070.00;;;7.10
71463;BMP180;59266;52.608;13.260;2023-12-20T12:01:51;100076.00;;;7.10
71463;BMP180;59266;52.608;13.260;2023-12-20T12:04:18;100073.00;;;7.10
71463;BMP180;59266;52.608;13.260;2023-12-20T12:06:46;100077.00;;;7.10
71463;BMP180;59266;52.608;13.260;2023-12-20T12:09:13;100067.00;;;7.10
71463;BMP180;59266;52.608;13.260;2023-12-20T12:11:40;100056.00;;;7.00
71463;BMP180;59266;52.608;13.260;2023-12-20T12:14:07;100049.00;;;6.90
71463;BMP180;59266;52.608;13.260;2023-12-20T12:16:34;100052.00;;;6.90
71463;BMP180;59266;52.608;13.260;2023-12-20T12:19:00;100045.00;;;6.80
71463;BMP180;59266;52.608;13.260;2023-12-20T12:21:33;100048.00;;;6.80
71463;BMP180;59266;52.608;13.260;2023-12-20T12:24:07;100050.00;;;6.70
71463;BMP180;59266;52.608;13.260;2023-12-20T12:26:34;100040.00;;;6.70
71463;BMP180;59266;52.608;13.260;2023-12-20T12:29:00;100037.00;;;6.70
71463;BMP180;59266;52.608;13.260;2023-12-20T12:31:27;100044.00;;;6.60
71463;BMP180;59266;52.608;13.260;2023-12-20T12:33:54;100047.00;;;6.60
71463;BMP180;59266;52.608;13.260;2023-12-20T12:36:21;100040.00;;;6.60
71463;BMP180;59266;52.608;13.260;2023-12-20T12:38:49;100044.00;;;6.50
71463;BMP180;59266;52.608;13.260;2023-12-20T12:41:15;100020.00;;;6.50
71463;BMP180;59266;52.608;13.260;2023-12-20T12:43:44;100007.00;;;6.50
71463;BMP180;59266;52.608;13.260;2023-12-20T12:46:10;100004.00;;;6.40
71463;BMP180;59266;52.608;13.260;2023-12-20T12:48:38;99993.00;;;6.50
71463;BMP180;59266;52.608;13.260;2023-12-20T12:51:07;100001.00;;;6.50
71463;BMP180;59266;52.608;13.260;2023-12-20T12:53:39;99992.00;;;6.50
71463;BMP180;59266;52.608;13.260;2023-12-20T12:56:06;100007.00;;;6.40
71463;BMP180;59266;52.608;13.260;2023-12-20T12:58:33;99988.00;;;6.60
71463;BMP180;59266;52.608;13.260;2023-12-20T13:01:00;100005.00;;;6.50
71463;BMP180;59266;52.608;13.260;2023-12-20T13:03:27;100008.00;;;6.50
71463;BMP180;59266;52.608;13.260;2023-12-20T13:05:54;100021.00;;;6.50
71463;BMP180;59266;52.608;13.260;2023-12-20T13:08:27;100023.00;;;6.50
71463;BMP180;59266;52.608;13.260;2023-12-20T13:10:53;100036.00;;;6.40
71463;BMP180;59266;52.608;13.260;2023-12-20T13:13:19;100041.00;;;6.30
71463;BMP180;59266;52.608;13.260;2023-12-20T13:15:46;100037.00;;;6.30
71463;BMP180;59266;52.608;13.260;2023-12-20T13:18:17;100050.00;;;6.20
71463;BMP180;59266;52.608;13.260;2023-12-20T13:20:52;100055.00;;;6.20
71463;BMP180;59266;52.608;13.260;2023-12-20T13:23:18;100061.00;;;6.20
71463;BMP180;59266;52.608;13.260;2023-12-20T13:25:46;100049.00;;;6.20
71463;BMP180;59266;52.608;13.260;2023-12-20T13:28:13;100043.00;;;6.10
71463;BMP180;59266;52.608;13.260;2023-12-20T13:30:40;100027.00;;;6.10
71463;BMP180;59266;52.608;13.260;2023-12-20T13:33:08;100026.00;;;6.10
71463;BMP180;59266;52.608;13.260;2023-12-20T13:35:35;100034.00;;;6.10
71463;BMP180;59266;52.608;13.260;2023-12-20T13:38:02;100032.00;;;6.20
71463;BMP180;59266;52.608;13.260;2023-12-20T13:40:29;100039.00;;;6.20
71463;BMP180;59266;52.608;13.260;2023-12-20T13:43:00;100046.00;;;6.20
71463;BMP180;59266;52.608;13.260;2023-12-20T13:45:26;100049.00;;;6.10
71463;BMP180;59266;52.608;13.260;2023-12-20T13:47:53;100047.00;;;6.00
71463;BMP180;59266;52.608;13.260;2023-12-20T13:50:19;100055.00;;;5.90
71463;BMP180;59266;52.608;13.260;2023-12-20T13:52:47;100065.00;;;5.80
71463;BMP180;59266;52.608;13.260;2023-12-20T13:55:14;100068.00;;;5.80
71463;BMP180;59266;52.608;13.260;2023-12-20T13:57:41;100061.00;;;5.80
71463;BMP180;59266;52.608;13.260;2023-12-20T14:00:20;100063.00;;;5.80
71463;BMP180;59266;52.608;13.260;2023-12-20T14:02:47;100065.00;;;5.80
71463;BMP180;59266;52.608;13.260;2023-12-20T14:05:14;100065.00;;;5.70
71463;BMP180;59266;52.608;13.260;2023-12-20T14:07:44;100080.00;;;5.60
71463;BMP180;59266;52.608;13.260;2023-12-20T14:10:12;100082.00;;;5.50
71463;BMP180;59266;52.608;13.260;2023-12-20T14:12:42;100091.00;;;5.60
71463;BMP180;59266;52.608;13.260;2023-12-20T14:15:11;100093.00;;;5.60
71463;BMP180;59266;52.608;13.260;2023-12-20T14:17:40;100103.00;;;5.70
71463;BMP180;59266;52.608;13.260;2023-12-20T14:20:06;100108.00;;;5.70
71463;BMP180;59266;52.608;13.260;2023-12-20T14:22:35;100105.00;;;5.70
71463;BMP180;59266;52.608;13.260;2023-12-20T14:25:02;100109.00;;;5.70
71463;BMP180;59266;52.608;13.260;2023-12-20T14:27:29;100105.00;;;5.70
71463;BMP180;59266;52.608;13.260;2023-12-20T14:29:56;100107.00;;;5.70
71463;BMP180;59266;52.608;13.260;2023-12-20T14:32:23;100119.00;;;5.60